NCAR-RAP Real-Time Weather Data

Output produced by METARs form (23 January 2018  15:46 UTC)
found at http://weather.rap.ucar.edu/surface/
 
RORS 231000Z 05013KT 9999 FEW020 19/15 Q1015
RORS 230900Z 06013KT 9999 FEW020 20/15 Q1015
RORS 230800Z 06013KT 9999 FEW025 21/15 Q1014
RORS 230700Z 05013KT 9999 FEW025 22/15 Q1014
RORS 230600Z 05012KT 9999 SCT026 BKN050 23/15 Q1013
RORS 230500Z 05012KT 9999 FEW032 SCT040 BKN050 22/15 Q1014
RORS 230400Z 06014KT 9999 FEW028 BKN040 22/15 Q1014
RORS 230300Z 07014KT 9999 FEW030 23/15 Q1015
RORS 230200Z 06013KT 9999 FEW029 SCT048 BKN050 21/14 Q1016
RORS 230100Z 06012KT 9999 FEW030 BKN048 20/14 Q1016
RORS 230000Z 06012KT 9999 FEW032 BKN045 20/13 Q1016
RORS 222300Z 06012KT 9999 SCT030 BKN045 19/14 Q1016
RORS 222200Z 04015KT 9999 FEW030 BKN045 19/13 Q1015
RORS 221000Z 04022KT 9999 VCSH SCT026 BKN040 BKN130 19/14 Q1014
RORS 220900Z 03022KT 9999 SCT026 BKN100 19/14 Q1013
RORS 220800Z 02025KT 9999 SCT024 BKN100 20/15 Q1012
RORS 220700Z 02022KT 9999 SCT020 BKN090 20/15 Q1011
RORS 220600Z 02016KT 9999 FEW020 BKN090 20/16 Q1012
RORS 220500Z 01022KT 9999 SCT018 BKN028 BKN090 20/16 Q1012
RORS 220400Z 36023KT 9999 SCT019 BKN025 20/16 Q1012
RORS 220300Z 35028KT 9999 SCT013 BKN020 20/17 Q1013
RORS 220200Z 35027KT 9999 SCT011 BKN018 21/19 Q1013
RORS 220100Z 34030KT 9999 -SHRA FEW008 BKN012 BKN040 22/20 Q1013
RORS 220000Z 29015KT 7000 -SHRA FEW004 SCT010 BKN020 22/21 Q1012
RORS 212319Z VRB01KT 1500 R35/0550VP1800D +SHRA FEW004 SCT013 BKN020 22/21 Q1011 RMK 1ST004 4CU013 6CU020 A2986 RI++
RORS 212316Z VRB02KT 1500 R35/1100VP1800D +SHRA SCT014 BKN020 22/21 Q1011 RMK 4CU014 6CU020 A2987
RORS 212313Z 27002KT 3000 R35/1500VP1800N SHRA FEW014 BKN020 22/21 Q1011 RMK 2CU014 6CU020 A2987 9000SE
RORS 212300Z 19003KT 140V260 9999 -RA FEW018 SCT036 BKN060 22/21 Q1011
RORS 212200Z 15006KT 9999 VCSH FEW020 SCT042 BKN140 22/20 Q1011
RORS 211000Z 09010KT 9999 FEW020 BKN070 22/18 Q1013
RORS 210900Z 10012KT 9999 FEW019 BKN080 22/18 Q1013
RORS 210800Z 08012KT 9999 FEW020 BKN070 22/18 Q1013
RORS 210700Z 07014KT 9999 FEW018 BKN070 23/18 Q1013
RORS 210600Z 08013KT 9999 FEW020 BKN080 24/18 Q1013
RORS 210500Z 07013KT 9999 SCT020 BKN080 24/17 Q1014
RORS 210400Z 07013KT 9999 SCT019 SCT090 23/17 Q1014